createdAt,value
2023-01-25T00:00:46.118Z,10.73
2023-01-25T00:03:13.195Z,9.75
2023-01-25T00:05:40.291Z,9.02
2023-01-25T00:08:07.249Z,8.52
2023-01-25T00:10:34.245Z,10.70
2023-01-25T00:13:01.200Z,8.32
2023-01-25T00:15:28.208Z,11.68
2023-01-25T00:17:55.210Z,10.02
2023-01-25T00:20:22.229Z,9.52
2023-01-25T00:22:49.202Z,11.30
2023-01-25T00:25:16.160Z,9.30
2023-01-25T00:27:43.170Z,10.55
2023-01-25T00:30:10.716Z,10.40
2023-01-25T00:32:49.627Z,9.50
2023-01-25T00:35:16.640Z,8.82
2023-01-25T00:37:47.480Z,9.57
2023-01-25T00:40:14.591Z,8.15
2023-01-25T00:42:42.258Z,8.25
2023-01-25T00:45:13.365Z,8.18
2023-01-25T00:47:40.671Z,9.13
2023-01-25T00:50:08.924Z,7.82
2023-01-25T00:52:35.970Z,10.00
2023-01-25T00:55:03.902Z,8.57
2023-01-25T00:57:31.424Z,9.55
2023-01-25T00:59:58.460Z,10.18
2023-01-25T01:02:25.577Z,8.80
2023-01-25T01:04:56.750Z,8.80
2023-01-25T01:07:23.874Z,10.65
2023-01-25T01:09:52.506Z,9.23
2023-01-25T01:12:19.901Z,8.02
2023-01-25T01:14:47.077Z,8.75
2023-01-25T01:17:14.059Z,7.82
2023-01-25T01:19:41.046Z,7.88
2023-01-25T01:22:08.581Z,9.70
2023-01-25T01:24:35.979Z,7.95
2023-01-25T01:27:03.267Z,7.78
2023-01-25T01:29:30.287Z,7.65
2023-01-25T01:31:57.468Z,6.75
2023-01-25T01:34:26.584Z,7.32
2023-01-25T01:36:54.537Z,6.40
2023-01-25T01:39:22.564Z,7.00
2023-01-25T01:41:49.669Z,8.30
2023-01-25T01:44:22.817Z,7.65
2023-01-25T01:46:58.531Z,7.47
2023-01-25T01:49:32.107Z,7.95
2023-01-25T01:52:15.364Z,7.07
2023-01-25T01:55:05.539Z,7.15
2023-01-25T01:57:40.709Z,8.05
2023-01-25T02:00:14.146Z,7.78
2023-01-25T02:02:42.355Z,7.60
2023-01-25T02:05:18.754Z,8.63
2023-01-25T02:07:49.431Z,7.75
2023-01-25T02:10:20.420Z,8.65
2023-01-25T02:12:48.934Z,8.80
2023-01-25T02:15:16.010Z,10.40
2023-01-25T02:17:43.057Z,8.88
2023-01-25T02:20:15.045Z,8.35
2023-01-25T02:22:51.136Z,7.00
2023-01-25T02:25:18.427Z,7.20
2023-01-25T02:27:52.827Z,7.60
2023-01-25T02:30:20.247Z,7.47
2023-01-25T02:32:47.247Z,8.25
2023-01-25T02:35:22.684Z,9.95
2023-01-25T02:37:50.994Z,7.68
2023-01-25T02:40:18.763Z,8.93
2023-01-25T02:42:46.806Z,8.43
2023-01-25T02:45:19.244Z,6.35
2023-01-25T02:47:46.324Z,8.30
2023-01-25T02:50:15.083Z,7.45
2023-01-25T02:52:42.902Z,7.25
2023-01-25T02:55:10.701Z,8.23
2023-01-25T02:57:39.967Z,7.95
2023-01-25T03:00:08.264Z,9.00
2023-01-25T03:02:35.652Z,8.65
2023-01-25T03:05:02.742Z,6.70
2023-01-25T03:07:30.677Z,6.38
2023-01-25T03:09:58.318Z,7.60
2023-01-25T03:12:25.680Z,8.75
2023-01-25T03:14:53.966Z,8.20
2023-01-25T03:17:20.994Z,8.55
2023-01-25T03:19:49.018Z,7.80
2023-01-25T03:22:16.570Z,7.53
2023-01-25T03:24:43.846Z,9.18
2023-01-25T03:27:11.342Z,7.85
2023-01-25T03:29:51.857Z,7.32
2023-01-25T03:32:25.452Z,9.50
2023-01-25T03:34:53.721Z,8.93
2023-01-25T03:37:21.301Z,9.07
2023-01-25T03:39:49.519Z,8.85
2023-01-25T03:42:16.618Z,7.95
2023-01-25T03:44:44.232Z,9.35
2023-01-25T03:47:11.305Z,10.13
2023-01-25T03:49:38.335Z,9.52
2023-01-25T03:52:07.564Z,9.38
2023-01-25T03:54:37.966Z,9.23
2023-01-25T03:57:06.765Z,10.32
2023-01-25T03:59:41.373Z,7.25
2023-01-25T04:02:08.393Z,8.48
2023-01-25T04:04:36.044Z,8.68
2023-01-25T04:07:03.880Z,9.18
2023-01-25T04:09:32.286Z,10.40
2023-01-25T04:12:00.202Z,9.23
2023-01-25T04:14:43.258Z,11.48
2023-01-25T04:17:11.298Z,11.70
2023-01-25T04:19:54.037Z,11.38
2023-01-25T04:22:25.924Z,11.50
2023-01-25T04:24:55.570Z,10.63
2023-01-25T04:27:22.862Z,12.30
2023-01-25T04:29:57.834Z,10.27
2023-01-25T04:32:26.874Z,12.00
2023-01-25T04:34:54.510Z,11.77
2023-01-25T04:37:24.658Z,9.63
2023-01-25T04:39:58.109Z,10.40
2023-01-25T04:42:26.531Z,9.77
2023-01-25T04:44:56.142Z,9.98
2023-01-25T04:47:24.384Z,10.20
2023-01-25T04:49:51.566Z,10.25
2023-01-25T04:52:23.145Z,9.90
2023-01-25T04:54:50.130Z,9.85
2023-01-25T04:57:18.146Z,12.52
2023-01-25T04:59:49.939Z,10.38
2023-01-25T05:02:17.401Z,10.52
2023-01-25T05:04:44.499Z,11.20
2023-01-25T05:07:11.652Z,10.60
2023-01-25T05:09:38.731Z,9.30
2023-01-25T05:12:11.782Z,9.88
2023-01-25T05:14:53.259Z,9.20
2023-01-25T05:17:21.370Z,9.15
2023-01-25T05:19:48.492Z,9.65
2023-01-25T05:22:20.914Z,10.48
2023-01-25T05:24:51.426Z,9.70
2023-01-25T05:27:20.313Z,8.27
2023-01-25T05:29:53.779Z,8.43
2023-01-25T05:32:25.353Z,8.82
2023-01-25T05:34:52.743Z,10.35
2023-01-25T05:37:21.405Z,8.30
2023-01-25T05:39:55.372Z,9.35
2023-01-25T05:42:22.327Z,9.98
2023-01-25T05:44:49.614Z,8.15
2023-01-25T05:47:18.276Z,8.45
2023-01-25T05:49:46.549Z,9.32
2023-01-25T05:52:24.115Z,9.45
2023-01-25T05:54:51.607Z,8.75
2023-01-25T05:57:18.571Z,9.70
2023-01-25T05:59:45.788Z,8.63
2023-01-25T06:02:16.376Z,8.65
2023-01-25T06:04:44.326Z,8.50
2023-01-25T06:07:11.549Z,9.88
2023-01-25T06:09:38.590Z,11.77
2023-01-25T06:12:06.882Z,11.40
2023-01-25T06:14:34.137Z,11.95
2023-01-25T06:17:02.833Z,11.35
2023-01-25T06:19:48.461Z,10.98
2023-01-25T06:22:30.601Z,10.55
2023-01-25T06:24:57.636Z,11.27
2023-01-25T06:27:24.580Z,10.75
2023-01-25T06:29:51.617Z,9.48
2023-01-25T06:32:18.672Z,10.20
2023-01-25T06:34:46.510Z,9.45
2023-01-25T06:37:21.739Z,11.25
2023-01-25T06:39:48.791Z,10.60
2023-01-25T06:42:15.800Z,11.50
2023-01-25T06:44:42.748Z,12.60
2023-01-25T06:47:10.175Z,12.55
2023-01-25T06:49:37.354Z,10.65
2023-01-25T06:52:04.470Z,10.48
2023-01-25T06:54:31.482Z,11.45
2023-01-25T06:56:58.436Z,11.15
2023-01-25T06:59:25.537Z,13.38
2023-01-25T07:01:52.575Z,13.55
2023-01-25T07:04:19.553Z,9.60
2023-01-25T07:06:46.538Z,10.80
2023-01-25T07:09:14.932Z,9.07
2023-01-25T07:11:41.953Z,10.40
2023-01-25T07:14:08.997Z,9.45
2023-01-25T07:16:39.147Z,9.30
2023-01-25T07:19:07.580Z,8.88
2023-01-25T07:21:34.741Z,11.63
2023-01-25T07:24:02.896Z,8.93
2023-01-25T07:26:30.268Z,9.38
2023-01-25T07:28:58.579Z,11.23
2023-01-25T07:31:26.538Z,8.75
2023-01-25T07:33:55.303Z,9.20
2023-01-25T07:36:22.908Z,8.45
2023-01-25T07:38:53.331Z,9.57
2023-01-25T07:41:20.459Z,9.45
2023-01-25T07:43:47.415Z,8.80
2023-01-25T07:46:21.793Z,8.65
2023-01-25T07:48:51.021Z,8.38
2023-01-25T07:51:23.284Z,9.07
2023-01-25T07:53:56.342Z,10.23
2023-01-25T07:56:25.777Z,9.27
2023-01-25T07:58:55.066Z,9.35
2023-01-25T08:01:24.305Z,9.50
2023-01-25T08:03:51.864Z,10.90
2023-01-25T08:06:27.407Z,9.73
2023-01-25T08:08:55.399Z,15.15
2023-01-25T08:11:28.473Z,11.43
2023-01-25T08:13:56.100Z,9.73
2023-01-25T08:16:26.267Z,9.55
2023-01-25T08:18:55.652Z,10.07
2023-01-25T08:21:30.069Z,9.63
2023-01-25T08:23:58.767Z,9.73
2023-01-25T08:26:26.483Z,11.18
2023-01-25T08:28:54.038Z,9.52
2023-01-25T08:31:30.128Z,10.27
2023-01-25T08:33:58.122Z,8.80
2023-01-25T08:36:25.543Z,11.73
2023-01-25T08:39:01.048Z,9.65
2023-01-25T08:41:30.280Z,10.63
2023-01-25T08:43:57.643Z,7.60
2023-01-25T08:46:29.290Z,20.75
2023-01-25T08:48:57.943Z,9.80
2023-01-25T08:51:25.987Z,9.02
2023-01-25T08:53:53.336Z,7.38
2023-01-25T08:56:20.601Z,8.77
2023-01-25T08:58:49.592Z,10.15
2023-01-25T09:01:18.104Z,7.60
2023-01-25T09:03:47.294Z,9.38
2023-01-25T09:06:15.213Z,8.60
2023-01-25T09:08:42.913Z,10.10
2023-01-25T09:11:15.916Z,12.18
2023-01-25T09:13:43.863Z,9.15
2023-01-25T09:16:13.789Z,9.32
2023-01-25T09:18:43.433Z,9.50
2023-01-25T09:21:16.935Z,9.48
2023-01-25T09:24:04.180Z,8.70
2023-01-25T09:26:33.522Z,9.63
2023-01-25T09:29:00.755Z,10.10
2023-01-25T09:31:27.968Z,6.53
2023-01-25T09:34:14.479Z,6.90
2023-01-25T09:36:41.698Z,7.45
2023-01-25T09:39:13.958Z,9.63
2023-01-25T09:41:58.423Z,8.10
2023-01-25T09:44:37.747Z,7.55
2023-01-25T09:47:16.881Z,8.82
2023-01-25T09:50:17.316Z,8.35
2023-01-25T09:53:14.674Z,9.05
2023-01-25T09:55:42.674Z,8.32
2023-01-25T09:58:19.964Z,9.30
2023-01-25T10:00:52.056Z,8.73
2023-01-25T10:03:38.999Z,9.13
2023-01-25T10:06:06.880Z,12.63
2023-01-25T10:08:48.147Z,10.60
2023-01-25T10:11:27.891Z,9.55
2023-01-25T10:13:56.559Z,10.00
2023-01-25T10:16:37.314Z,8.82
2023-01-25T10:19:19.646Z,9.25
2023-01-25T10:21:51.378Z,10.13
2023-01-25T10:24:35.952Z,8.25
2023-01-25T10:27:14.210Z,8.40
2023-01-25T10:29:41.421Z,9.18
2023-01-25T10:32:28.183Z,9.18
2023-01-25T10:34:58.904Z,9.50
2023-01-25T10:37:29.949Z,8.05
2023-01-25T10:39:59.928Z,7.85
2023-01-25T10:42:29.896Z,10.48
2023-01-25T10:44:56.935Z,8.63
2023-01-25T10:47:27.965Z,9.20
2023-01-25T10:49:56.531Z,8.73
2023-01-25T10:52:29.412Z,9.63
2023-01-25T10:55:19.842Z,9.73
2023-01-25T10:57:51.639Z,9.98
2023-01-25T11:00:30.179Z,8.60
2023-01-25T11:02:57.846Z,9.05
2023-01-25T11:05:36.857Z,11.77
2023-01-25T11:08:34.932Z,9.95
2023-01-25T11:11:40.527Z,9.85
2023-01-25T11:14:18.436Z,9.77
2023-01-25T11:16:50.630Z,10.88
2023-01-25T11:19:38.945Z,9.27
2023-01-25T11:22:21.781Z,11.38
2023-01-25T11:24:48.845Z,9.52
2023-01-25T11:27:26.237Z,10.00
2023-01-25T11:30:19.077Z,11.85
2023-01-25T11:32:46.333Z,9.80
2023-01-25T11:35:25.675Z,11.15
2023-01-25T11:38:02.699Z,9.23
2023-01-25T11:40:48.042Z,7.93
2023-01-25T11:43:30.258Z,10.27
2023-01-25T11:46:17.201Z,9.02
2023-01-25T11:49:00.890Z,9.90
2023-01-25T11:51:44.157Z,10.02
2023-01-25T11:54:42.130Z,10.65
2023-01-25T11:57:35.531Z,10.65
2023-01-25T12:00:18.186Z,9.30
2023-01-25T12:03:00.248Z,9.98
2023-01-25T12:05:44.727Z,8.95
2023-01-25T12:08:18.835Z,11.50
2023-01-25T12:11:13.603Z,10.35
2023-01-25T12:14:02.807Z,10.32
2023-01-25T12:16:29.769Z,10.85
2023-01-25T12:19:02.659Z,12.18
2023-01-25T12:21:48.040Z,11.27
2023-01-25T12:24:33.686Z,12.32
2023-01-25T12:27:19.284Z,12.57
2023-01-25T12:30:12.462Z,13.23
2023-01-25T12:33:13.853Z,9.82
2023-01-25T12:36:06.549Z,12.02
2023-01-25T12:39:03.935Z,9.57
2023-01-25T12:41:43.785Z,10.15
2023-01-25T12:44:35.257Z,11.48
2023-01-25T12:47:15.158Z,10.35
2023-01-25T12:49:54.718Z,9.82
2023-01-25T12:52:41.286Z,10.85
2023-01-25T12:55:14.540Z,12.50
2023-01-25T12:57:51.330Z,11.05
2023-01-25T13:00:55.451Z,10.32
2023-01-25T13:03:51.994Z,10.73
2023-01-25T13:06:32.027Z,12.70
2023-01-25T13:09:12.535Z,12.02
2023-01-25T13:11:41.947Z,9.27
2023-01-25T13:14:18.238Z,10.93
2023-01-25T13:17:01.445Z,9.25
2023-01-25T13:19:31.911Z,12.07
2023-01-25T13:22:00.792Z,11.18
2023-01-25T13:24:32.540Z,10.02
2023-01-25T13:27:02.488Z,9.90
2023-01-25T13:29:38.755Z,11.07
2023-01-25T13:32:13.224Z,11.52
2023-01-25T13:34:44.285Z,11.07
2023-01-25T13:37:24.740Z,11.10
2023-01-25T13:40:06.423Z,10.23
2023-01-25T13:42:39.554Z,11.10
2023-01-25T13:45:18.875Z,14.45
2023-01-25T13:48:01.636Z,12.88
2023-01-25T13:50:34.403Z,10.05
2023-01-25T13:53:17.166Z,11.40
2023-01-25T13:55:46.769Z,12.05
2023-01-25T13:58:25.614Z,10.18
2023-01-25T14:00:55.683Z,12.48
2023-01-25T14:03:28.199Z,12.07
2023-01-25T14:05:57.813Z,12.23
2023-01-25T14:08:26.540Z,13.48
2023-01-25T14:10:54.684Z,16.00
2023-01-25T14:13:21.724Z,15.93
2023-01-25T14:16:01.328Z,14.57
2023-01-25T14:18:32.098Z,14.73
2023-01-25T14:21:20.262Z,15.07
2023-01-25T14:23:48.839Z,16.23
2023-01-25T14:26:23.201Z,15.43
2023-01-25T14:29:01.037Z,13.60
2023-01-25T14:31:37.209Z,13.95
2023-01-25T14:34:06.240Z,11.95
2023-01-25T14:36:35.028Z,13.18
2023-01-25T14:39:04.586Z,12.85
2023-01-25T14:41:41.937Z,14.20
2023-01-25T14:44:15.270Z,14.02
2023-01-25T14:46:42.470Z,14.50
2023-01-25T14:49:13.208Z,16.30
2023-01-25T14:51:41.727Z,18.25
2023-01-25T14:54:36.229Z,12.98
2023-01-25T14:57:06.005Z,14.40
2023-01-25T14:59:50.681Z,16.08
2023-01-25T15:02:39.923Z,13.55
2023-01-25T15:05:19.775Z,13.32
2023-01-25T15:07:52.665Z,13.43
2023-01-25T15:10:31.329Z,11.98
2023-01-25T15:13:12.737Z,13.75
2023-01-25T15:15:50.891Z,15.68
2023-01-25T15:18:53.110Z,13.07
2023-01-25T15:21:24.487Z,15.25
2023-01-25T15:23:52.912Z,13.07
2023-01-25T15:26:25.277Z,14.63
2023-01-25T15:28:55.507Z,15.07
2023-01-25T15:31:43.471Z,15.77
2023-01-25T15:34:17.008Z,14.23
2023-01-25T15:36:44.061Z,15.45
2023-01-25T15:39:19.490Z,13.10
2023-01-25T15:41:46.932Z,14.70
2023-01-25T15:44:14.278Z,15.20
2023-01-25T15:46:46.100Z,14.70
2023-01-25T15:49:18.913Z,15.25
2023-01-25T15:51:46.993Z,15.52
2023-01-25T15:54:13.993Z,14.35
2023-01-25T15:56:42.754Z,15.18
2023-01-25T15:59:17.322Z,14.77
2023-01-25T16:01:44.899Z,15.25
2023-01-25T16:04:15.726Z,15.85
2023-01-25T16:06:50.565Z,15.35
2023-01-25T16:09:21.303Z,17.30
2023-01-25T16:11:51.567Z,13.68
2023-01-25T16:14:19.351Z,13.80
2023-01-25T16:16:49.677Z,16.10
2023-01-25T16:19:19.306Z,15.27
2023-01-25T16:21:46.276Z,14.43
2023-01-25T16:24:13.403Z,15.93
2023-01-25T16:26:45.722Z,14.15
2023-01-25T16:29:13.140Z,13.98
2023-01-25T16:31:40.217Z,13.20
2023-01-25T16:34:07.462Z,14.82
2023-01-25T16:36:34.875Z,13.80
2023-01-25T16:39:15.943Z,13.60
2023-01-25T16:41:42.922Z,13.20
2023-01-25T16:44:09.890Z,12.38
2023-01-25T16:46:36.871Z,13.48
2023-01-25T16:49:07.134Z,12.27
2023-01-25T16:51:34.417Z,14.43
2023-01-25T16:54:01.493Z,13.25
2023-01-25T16:56:31.440Z,14.00
2023-01-25T16:59:02.346Z,12.38
2023-01-25T17:01:29.468Z,12.70
2023-01-25T17:03:56.653Z,14.13
2023-01-25T17:06:27.462Z,12.73
2023-01-25T17:09:02.162Z,13.18
2023-01-25T17:11:32.453Z,14.63
2023-01-25T17:14:01.598Z,13.75
2023-01-25T17:16:29.867Z,13.10
2023-01-25T17:19:07.753Z,12.32
2023-01-25T17:21:35.024Z,11.32
2023-01-25T17:24:02.439Z,14.65
2023-01-25T17:26:31.585Z,13.55
2023-01-25T17:29:02.356Z,11.68
2023-01-25T17:31:32.313Z,13.27
2023-01-25T17:34:03.569Z,13.30
2023-01-25T17:36:30.626Z,12.23
2023-01-25T17:39:02.893Z,11.65
2023-01-25T17:41:29.927Z,12.98
2023-01-25T17:43:57.775Z,12.57
2023-01-25T17:46:37.425Z,12.35
2023-01-25T17:49:06.758Z,13.20
2023-01-25T17:51:34.883Z,12.18
2023-01-25T17:54:03.474Z,13.57
2023-01-25T17:56:30.950Z,14.55
2023-01-25T17:59:01.165Z,13.45
2023-01-25T18:01:32.257Z,12.88
2023-01-25T18:04:00.726Z,12.45
2023-01-25T18:06:30.406Z,13.32
2023-01-25T18:09:00.807Z,11.68
2023-01-25T18:11:33.520Z,14.35
2023-01-25T18:14:03.870Z,13.93
2023-01-25T18:16:32.567Z,12.35
2023-01-25T18:19:01.356Z,14.10
2023-01-25T18:21:31.738Z,12.75
2023-01-25T18:24:35.474Z,14.18
2023-01-25T18:27:08.505Z,14.27
2023-01-25T18:30:00.233Z,11.75
2023-01-25T18:32:28.279Z,11.98
2023-01-25T18:34:55.303Z,16.15
2023-01-25T18:37:24.273Z,13.52
2023-01-25T18:39:55.871Z,13.00
2023-01-25T18:42:26.455Z,13.38
2023-01-25T18:44:53.608Z,11.77
2023-01-25T18:47:22.672Z,13.13
2023-01-25T18:49:51.828Z,14.23
2023-01-25T18:52:20.887Z,15.20
2023-01-25T18:54:47.924Z,15.18
2023-01-25T18:57:15.849Z,12.57
2023-01-25T18:59:43.586Z,15.30
2023-01-25T19:02:12.913Z,14.07
2023-01-25T19:04:40.149Z,15.83
2023-01-25T19:07:07.734Z,11.38
2023-01-25T19:09:34.950Z,13.50
2023-01-25T19:12:02.092Z,16.40
2023-01-25T19:14:29.169Z,11.65
2023-01-25T19:16:56.531Z,13.97
2023-01-25T19:19:23.767Z,12.90
2023-01-25T19:21:50.889Z,13.57
2023-01-25T19:24:19.646Z,12.47
2023-01-25T19:26:47.488Z,13.90
2023-01-25T19:29:15.479Z,13.40
2023-01-25T19:31:42.531Z,12.80
2023-01-25T19:34:12.335Z,11.57
2023-01-25T19:36:45.894Z,14.15
2023-01-25T19:39:15.103Z,14.37
2023-01-25T19:41:42.582Z,12.87
2023-01-25T19:44:12.946Z,12.63
2023-01-25T19:46:40.436Z,14.73
2023-01-25T19:49:08.784Z,14.40
2023-01-25T19:51:38.521Z,15.60
2023-01-25T19:54:09.991Z,14.07
2023-01-25T19:56:40.343Z,14.97
2023-01-25T19:59:11.464Z,12.60
2023-01-25T20:01:41.972Z,12.77
2023-01-25T20:04:09.327Z,17.00
2023-01-25T20:06:36.705Z,14.40
2023-01-25T20:09:04.216Z,13.20
2023-01-25T20:11:32.951Z,15.50
2023-01-25T20:14:03.255Z,13.80
2023-01-25T20:16:32.410Z,13.07
2023-01-25T20:19:00.251Z,13.37
2023-01-25T20:21:28.937Z,14.73
2023-01-25T20:24:00.414Z,17.73
2023-01-25T20:26:30.540Z,15.90
2023-01-25T20:28:58.985Z,15.83
2023-01-25T20:31:33.924Z,14.03
2023-01-25T20:34:04.905Z,14.63
2023-01-25T20:36:34.956Z,14.53
2023-01-25T20:39:02.550Z,18.37
2023-01-25T20:41:29.716Z,14.47
2023-01-25T20:44:04.529Z,13.40
2023-01-25T20:46:34.742Z,12.93
2023-01-25T20:49:02.141Z,16.83
2023-01-25T20:51:29.722Z,15.20
2023-01-25T20:53:57.517Z,13.90
2023-01-25T20:56:24.938Z,14.77
2023-01-25T20:58:53.402Z,16.80
2023-01-25T21:01:28.386Z,14.30
2023-01-25T21:03:59.481Z,15.90
2023-01-25T21:06:29.036Z,14.03
2023-01-25T21:08:56.596Z,15.00
2023-01-25T21:11:23.665Z,14.73
2023-01-25T21:13:50.775Z,13.57
2023-01-25T21:16:21.742Z,16.10
2023-01-25T21:18:54.769Z,13.60
2023-01-25T21:21:31.624Z,13.83
2023-01-25T21:24:02.702Z,14.17
2023-01-25T21:26:32.534Z,12.10
2023-01-25T21:29:01.918Z,11.33
2023-01-25T21:31:36.579Z,13.97
2023-01-25T21:34:05.291Z,13.17
2023-01-25T21:36:32.983Z,12.00
2023-01-25T21:39:00.259Z,13.97
2023-01-25T21:41:30.241Z,12.70
2023-01-25T21:44:17.711Z,15.30
2023-01-25T21:47:00.733Z,13.75
2023-01-25T21:49:51.426Z,13.83
2023-01-25T21:52:18.385Z,14.63
2023-01-25T21:54:45.335Z,13.53
2023-01-25T21:57:12.391Z,14.47
2023-01-25T21:59:41.003Z,13.67
2023-01-25T22:02:13.270Z,12.70
2023-01-25T22:04:40.558Z,14.93
2023-01-25T22:07:09.199Z,13.27
2023-01-25T22:09:36.463Z,13.40
2023-01-25T22:12:05.644Z,13.37
2023-01-25T22:14:32.765Z,14.27
2023-01-25T22:16:59.805Z,13.47
2023-01-25T22:19:26.820Z,12.60
2023-01-25T22:21:53.852Z,12.07
2023-01-25T22:24:21.047Z,13.40
2023-01-25T22:26:59.227Z,14.17
2023-01-25T22:29:26.718Z,14.17
2023-01-25T22:31:53.823Z,13.63
2023-01-25T22:34:20.797Z,12.87
2023-01-25T22:36:48.876Z,14.70
2023-01-25T22:39:15.953Z,12.80
2023-01-25T22:41:43.084Z,14.40
2023-01-25T22:44:10.174Z,14.53
2023-01-25T22:46:37.507Z,12.43
2023-01-25T22:49:05.034Z,12.93
2023-01-25T22:51:32.491Z,13.20
2023-01-25T22:54:00.464Z,15.27
2023-01-25T22:56:32.713Z,12.77
2023-01-25T22:59:00.586Z,13.60
2023-01-25T23:01:33.286Z,14.13
2023-01-25T23:04:01.544Z,15.63
2023-01-25T23:06:31.844Z,14.50
2023-01-25T23:09:14.388Z,12.33
2023-01-25T23:11:41.372Z,12.83
2023-01-25T23:14:30.808Z,12.70
2023-01-25T23:17:17.746Z,14.77
2023-01-25T23:19:44.867Z,13.73
2023-01-25T23:22:11.913Z,13.10
2023-01-25T23:24:38.874Z,14.80
2023-01-25T23:27:05.812Z,13.90
2023-01-25T23:29:32.852Z,14.90
2023-01-25T23:31:59.931Z,12.77
2023-01-25T23:34:27.011Z,13.07
2023-01-25T23:36:53.992Z,13.47
2023-01-25T23:39:20.932Z,15.30
2023-01-25T23:41:49.620Z,15.73
2023-01-25T23:44:16.557Z,13.07
2023-01-25T23:46:43.645Z,16.27
2023-01-25T23:49:10.765Z,13.53
2023-01-25T23:51:37.763Z,13.93
2023-01-25T23:54:04.902Z,13.60
2023-01-25T23:56:31.900Z,15.93
2023-01-25T23:58:58.901Z,13.53
